createdAt,value
2019-01-02T00:02:24.585Z,11.40
2019-01-02T00:04:54.809Z,4.77
2019-01-02T00:07:25.332Z,12.77
2019-01-02T00:09:55.453Z,13.70
2019-01-02T00:12:25.257Z,9.63
2019-01-02T00:14:55.072Z,11.80
2019-01-02T00:17:24.936Z,7.83
2019-01-02T00:19:54.681Z,8.40
2019-01-02T00:22:24.475Z,3.57
2019-01-02T00:24:54.938Z,5.30
2019-01-02T00:27:24.487Z,4.27
2019-01-02T00:29:54.516Z,6.57
2019-01-02T00:32:24.127Z,7.63
2019-01-02T00:34:53.729Z,7.37
2019-01-02T00:37:23.573Z,7.50
2019-01-02T00:39:53.395Z,4.97
2019-01-02T00:42:23.300Z,4.37
2019-01-02T00:44:53.251Z,5.83
2019-01-02T00:47:23.305Z,9.87
2019-01-02T00:49:53.119Z,8.67
2019-01-02T00:52:23.360Z,13.83
2019-01-02T00:54:53.172Z,6.90
2019-01-02T00:57:23.600Z,11.23
2019-01-02T00:59:53.925Z,4.13
2019-01-02T01:02:23.860Z,8.40
2019-01-02T01:04:53.755Z,12.53
2019-01-02T01:07:23.660Z,12.03
2019-01-02T01:09:53.908Z,15.43
2019-01-02T01:12:24.208Z,6.73
2019-01-02T01:14:54.323Z,10.33
2019-01-02T01:17:24.173Z,15.03
2019-01-02T01:19:54.357Z,10.97
2019-01-02T01:22:24.252Z,16.50
2019-01-02T01:24:54.401Z,7.00
2019-01-02T01:27:24.500Z,5.27
2019-01-02T01:29:54.080Z,11.63
2019-01-02T01:32:23.925Z,8.57
2019-01-02T01:34:53.840Z,4.80
2019-01-02T01:37:24.108Z,7.47
2019-01-02T01:39:53.655Z,10.40
2019-01-02T01:42:23.781Z,12.27
2019-01-02T01:44:53.896Z,8.93
2019-01-02T01:47:23.522Z,8.30
2019-01-02T01:49:53.423Z,8.87
2019-01-02T01:52:23.233Z,7.10
2019-01-02T01:54:53.653Z,7.23
2019-01-02T01:57:23.773Z,7.93
2019-01-02T01:59:53.696Z,8.97
2019-01-02T02:02:23.804Z,5.67
2019-01-02T02:04:53.692Z,6.57
2019-01-02T02:07:23.272Z,10.23
2019-01-02T02:09:53.418Z,10.03
2019-01-02T02:12:23.592Z,7.83
2019-01-02T02:14:53.539Z,7.47
2019-01-02T02:17:23.634Z,6.93
2019-01-02T02:19:53.241Z,3.93
2019-01-02T02:22:23.149Z,7.60
2019-01-02T02:24:52.764Z,12.80
2019-01-02T02:27:22.837Z,9.67
2019-01-02T02:29:53.293Z,9.57
2019-01-02T02:32:23.381Z,9.97
2019-01-02T02:34:53.501Z,14.23
2019-01-02T02:37:23.720Z,11.23
2019-01-02T02:39:53.632Z,13.53
2019-01-02T02:42:23.424Z,16.13
2019-01-02T02:44:53.265Z,8.80
2019-01-02T02:47:23.476Z,14.93
2019-01-02T02:49:54.005Z,10.60
2019-01-02T02:52:23.881Z,13.00
2019-01-02T02:54:54.020Z,8.00
2019-01-02T02:57:23.845Z,14.10
2019-01-02T02:59:54.068Z,10.20
2019-01-02T03:02:23.684Z,10.73
2019-01-02T03:04:55.631Z,9.47
2019-01-02T03:07:25.468Z,12.27
2019-01-02T03:09:55.400Z,13.70
2019-01-02T03:12:25.495Z,14.37
2019-01-02T03:14:55.389Z,8.63
2019-01-02T03:17:25.191Z,8.40
2019-01-02T03:19:55.416Z,19.93
2019-01-02T03:22:25.515Z,9.87
2019-01-02T03:24:56.064Z,14.57
2019-01-02T03:27:26.253Z,15.57
2019-01-02T03:29:56.184Z,6.97
2019-01-02T03:32:26.097Z,21.30
2019-01-02T03:34:56.017Z,15.87
2019-01-02T03:37:25.555Z,9.90
2019-01-02T03:39:55.440Z,8.47
2019-01-02T03:42:25.088Z,10.90
2019-01-02T03:44:55.165Z,14.03
2019-01-02T03:47:24.980Z,12.70
2019-01-02T03:49:54.793Z,14.07
2019-01-02T03:52:24.421Z,19.60
2019-01-02T03:54:53.956Z,9.70
2019-01-02T03:57:23.805Z,8.70
2019-01-02T03:59:53.726Z,9.87
2019-01-02T04:02:23.270Z,13.10
2019-01-02T04:04:52.836Z,17.07
2019-01-02T04:07:23.067Z,9.97
2019-01-02T04:09:52.613Z,19.80
2019-01-02T04:12:22.476Z,10.30
2019-01-02T04:14:52.345Z,7.67
2019-01-02T04:17:21.897Z,7.47
2019-01-02T04:19:51.752Z,8.23
2019-01-02T04:22:21.924Z,14.00
2019-01-02T04:24:51.744Z,17.20
2019-01-02T04:27:21.853Z,16.13
2019-01-02T04:29:51.968Z,10.57
2019-01-02T04:32:21.536Z,31.50
2019-01-02T04:34:51.364Z,17.80
2019-01-02T04:37:21.270Z,12.63
2019-01-02T04:39:51.421Z,9.47
2019-01-02T04:42:21.232Z,14.77
2019-01-02T04:44:51.163Z,8.03
2019-01-02T04:47:21.364Z,11.70
2019-01-02T04:49:50.941Z,11.60
2019-01-02T04:52:20.508Z,20.77
2019-01-02T04:54:50.357Z,11.70
2019-01-02T04:57:20.771Z,8.10
2019-01-02T04:59:50.933Z,13.10
2019-01-02T05:02:20.472Z,10.70
2019-01-02T05:04:50.456Z,7.00
2019-01-02T05:07:20.672Z,11.83
2019-01-02T05:09:50.465Z,9.40
2019-01-02T05:12:20.034Z,6.90
2019-01-02T05:14:49.900Z,15.37
2019-01-02T05:17:19.813Z,11.43
2019-01-02T05:19:49.933Z,13.93
2019-01-02T05:22:19.844Z,19.33
2019-01-02T05:24:49.764Z,16.73
2019-01-02T05:27:19.872Z,21.83
2019-01-02T05:29:49.431Z,13.03
2019-01-02T05:32:19.313Z,13.73
2019-01-02T05:34:49.152Z,16.33
2019-01-02T05:37:18.715Z,20.37
2019-01-02T05:39:48.833Z,17.03
2019-01-02T05:42:18.941Z,14.87
2019-01-02T05:44:48.773Z,12.57
2019-01-02T05:47:18.673Z,18.87
2019-01-02T05:49:48.212Z,17.57
2019-01-02T05:52:18.096Z,16.97
2019-01-02T05:54:48.005Z,16.70
2019-01-02T05:57:17.812Z,18.23
2019-01-02T05:59:47.364Z,16.13
2019-01-02T06:02:17.345Z,20.07
2019-01-02T06:04:47.455Z,9.40
2019-01-02T06:07:17.256Z,9.57
2019-01-02T06:09:46.792Z,16.37
2019-01-02T06:12:16.684Z,13.33
2019-01-02T06:14:46.333Z,20.30
2019-01-02T06:17:16.200Z,18.90
2019-01-02T06:19:45.822Z,13.70
2019-01-02T06:22:16.884Z,14.87
2019-01-02T06:24:47.094Z,9.73
2019-01-02T06:27:16.980Z,15.33
2019-01-02T06:29:47.104Z,10.07
2019-01-02T06:32:16.675Z,7.63
2019-01-02T06:34:46.508Z,8.30
2019-01-02T06:37:16.633Z,8.27
2019-01-02T06:39:46.176Z,8.40
2019-01-02T06:42:15.723Z,10.27
2019-01-02T06:44:45.656Z,11.90
2019-01-02T06:47:15.206Z,15.63
2019-01-02T06:49:45.048Z,13.47
2019-01-02T06:52:15.193Z,7.63
2019-01-02T06:54:45.417Z,3.90
2019-01-02T06:57:15.633Z,8.50
2019-01-02T06:59:45.196Z,11.27
2019-01-02T07:02:14.741Z,9.70
2019-01-02T07:04:44.661Z,9.47
2019-01-02T07:07:14.468Z,11.10
2019-01-02T07:09:44.012Z,10.90
2019-01-02T07:12:13.888Z,12.10
2019-01-02T07:14:43.424Z,17.97
2019-01-02T07:17:14.304Z,11.63
2019-01-02T07:19:43.872Z,9.90
2019-01-02T07:22:14.050Z,17.07
2019-01-02T07:24:43.857Z,19.20
2019-01-02T07:27:13.735Z,9.20
2019-01-02T07:29:43.583Z,7.60
2019-01-02T07:32:13.807Z,12.00
2019-01-02T07:35:18.053Z,13.17
2019-01-02T07:38:05.192Z,14.63
2019-01-02T07:41:37.676Z,12.10
2019-01-02T07:44:33.412Z,11.37
2019-01-02T07:47:26.967Z,9.60
2019-01-02T07:50:33.462Z,16.83
2019-01-02T07:53:57.252Z,4.50
2019-01-02T07:56:59.329Z,8.67
2019-01-02T08:00:07.333Z,10.00
2019-01-02T08:03:29.464Z,5.70
2019-01-02T08:06:39.860Z,10.60
2019-01-02T08:09:38.660Z,6.90
2019-01-02T08:12:27.469Z,9.97
2019-01-02T08:15:33.660Z,11.23
2019-01-02T08:18:39.181Z,10.67
2019-01-02T08:21:47.217Z,5.87
2019-01-02T08:25:19.780Z,6.27
2019-01-02T08:28:18.296Z,5.40
2019-01-02T08:31:12.848Z,4.63
2019-01-02T08:34:03.648Z,6.87
2019-01-02T08:37:18.212Z,5.87
2019-01-02T08:40:44.273Z,8.60
2019-01-02T08:43:57.161Z,10.20
2019-01-02T08:46:52.987Z,6.90
2019-01-02T08:49:39.124Z,9.50
2019-01-02T08:52:59.365Z,5.63
2019-01-02T08:55:49.993Z,6.83
2019-01-02T08:58:36.982Z,7.80
2019-01-02T09:01:27.373Z,8.00
2019-01-02T09:04:34.344Z,11.50
2019-01-02T09:07:50.501Z,9.70
2019-01-02T09:10:56.366Z,11.27
2019-01-02T09:14:02.188Z,13.43
2019-01-02T09:16:59.423Z,16.73
2019-01-02T09:20:19.916Z,11.10
2019-01-02T09:23:36.952Z,12.93
2019-01-02T09:26:51.496Z,13.60
2019-01-02T09:30:17.321Z,12.97
2019-01-02T09:33:16.073Z,11.80
2019-01-02T09:36:39.681Z,12.67
2019-01-02T09:39:48.292Z,9.90
2019-01-02T09:42:46.016Z,17.37
2019-01-02T09:45:42.205Z,13.60
2019-01-02T09:48:55.726Z,10.87
2019-01-02T09:51:52.573Z,12.23
2019-01-02T09:55:11.339Z,8.24
2019-01-02T09:58:21.020Z,10.50
2019-01-02T10:01:06.045Z,12.47
2019-01-02T10:04:01.171Z,14.03
2019-01-02T10:07:17.036Z,10.53
2019-01-02T10:10:27.171Z,12.63
2019-01-02T10:13:34.179Z,9.27
2019-01-02T10:16:39.754Z,16.80
2019-01-02T10:19:43.248Z,10.87
2019-01-02T10:22:58.805Z,9.00
2019-01-02T10:26:15.223Z,13.80
2019-01-02T10:29:18.216Z,17.93
2019-01-02T10:32:25.369Z,20.23
2019-01-02T10:35:48.248Z,9.43
2019-01-02T10:38:52.683Z,11.17
2019-01-02T10:42:04.988Z,14.40
2019-01-02T10:45:20.879Z,12.10
2019-01-02T10:48:14.996Z,13.33
2019-01-02T10:51:34.475Z,24.97
2019-01-02T10:54:18.381Z,10.40
2019-01-02T10:57:14.487Z,14.50
2019-01-02T11:00:19.123Z,12.07
2019-01-02T11:03:21.627Z,6.40
2019-01-02T11:06:39.640Z,12.62
2019-01-02T11:09:56.813Z,11.80
2019-01-02T11:12:59.788Z,8.30
2019-01-02T11:15:54.784Z,7.80
2019-01-02T11:18:40.116Z,9.60
2019-01-02T11:21:52.121Z,6.13
2019-01-02T11:25:03.216Z,9.50
2019-01-02T11:28:12.596Z,9.73
2019-01-02T11:31:25.731Z,4.03
2019-01-02T11:34:20.560Z,10.30
2019-01-02T11:37:12.851Z,6.20
2019-01-02T11:40:28.889Z,9.57
2019-01-02T11:43:34.742Z,11.67
2019-01-02T11:46:04.651Z,10.80
2019-01-02T11:48:35.080Z,6.17
2019-01-02T11:51:05.448Z,9.87
2019-01-02T11:53:35.013Z,8.30
2019-01-02T11:56:04.653Z,5.23
2019-01-02T11:58:34.533Z,7.83
2019-01-02T12:01:04.189Z,9.43
2019-01-02T12:03:33.740Z,9.03
2019-01-02T12:06:03.360Z,10.77
2019-01-02T12:08:33.208Z,7.17
2019-01-02T12:11:03.189Z,8.90
2019-01-02T12:13:32.736Z,5.27
2019-01-02T12:16:02.524Z,7.70
2019-01-02T12:18:32.116Z,7.73
2019-01-02T12:21:02.017Z,4.10
2019-01-02T12:23:31.800Z,11.37
2019-01-02T12:26:02.041Z,6.47
2019-01-02T12:28:31.932Z,4.40
2019-01-02T12:31:01.720Z,3.93
2019-01-02T12:33:31.299Z,6.00
2019-01-02T12:36:01.100Z,5.53
2019-01-02T12:38:31.322Z,7.80
2019-01-02T12:41:00.876Z,4.13
2019-01-02T12:43:30.419Z,7.97
2019-01-02T12:46:06.297Z,6.10
2019-01-02T12:48:36.162Z,8.77
2019-01-02T12:51:06.011Z,4.47
2019-01-02T12:53:35.805Z,7.40
2019-01-02T12:56:05.462Z,5.57
2019-01-02T12:58:35.321Z,2.63
2019-01-02T13:01:09.176Z,4.20
2019-01-02T13:04:16.204Z,4.57
2019-01-02T13:07:10.329Z,3.77
2019-01-02T13:10:00.892Z,7.53
2019-01-02T13:13:06.689Z,2.80
2019-01-02T13:16:04.989Z,5.60
2019-01-02T13:19:05.720Z,4.80
2019-01-02T13:22:16.833Z,4.00
2019-01-02T13:25:18.092Z,2.53
2019-01-02T13:28:38.309Z,7.57
2019-01-02T13:31:48.084Z,3.50
2019-01-02T13:34:49.528Z,6.13
2019-01-02T13:37:42.652Z,6.10
2019-01-02T13:40:49.096Z,4.40
2019-01-02T13:43:37.236Z,2.97
2019-01-02T13:46:32.745Z,4.03
2019-01-02T13:49:41.465Z,4.40
2019-01-02T13:52:11.353Z,7.77
2019-01-02T13:54:40.895Z,4.53
2019-01-02T13:57:10.460Z,4.70
2019-01-02T13:59:40.633Z,8.03
2019-01-02T14:02:10.205Z,5.60
2019-01-02T14:04:42.743Z,6.87
2019-01-02T14:07:13.374Z,2.86
2019-01-02T14:09:43.345Z,5.27
2019-01-02T14:12:13.359Z,6.57
2019-01-02T14:14:43.213Z,8.40
2019-01-02T14:17:13.292Z,5.13
2019-01-02T14:19:42.845Z,3.50
2019-01-02T14:22:12.711Z,5.17
2019-01-02T14:24:42.516Z,4.27
2019-01-02T14:27:12.338Z,5.47
2019-01-02T14:29:41.990Z,2.87
2019-01-02T14:32:11.533Z,1.43
2019-01-02T14:34:41.103Z,3.40
2019-01-02T14:37:11.144Z,3.03
2019-01-02T14:39:41.289Z,3.20
2019-01-02T14:42:11.169Z,3.03
2019-01-02T14:44:41.317Z,1.70
2019-01-02T14:47:10.884Z,2.80
2019-01-02T14:49:40.748Z,1.03
2019-01-02T14:52:10.316Z,4.00
2019-01-02T14:54:39.861Z,3.57
2019-01-02T14:57:09.723Z,2.83
2019-01-02T14:59:39.609Z,3.07
2019-01-02T15:02:10.017Z,1.33
2019-01-02T15:04:39.880Z,4.00
2019-01-02T15:07:09.850Z,2.93
2019-01-02T15:09:39.630Z,3.87
2019-01-02T15:12:09.741Z,8.37
2019-01-02T15:14:39.561Z,1.23
2019-01-02T15:17:09.429Z,4.97
2019-01-02T15:19:39.069Z,2.47
2019-01-02T15:22:08.897Z,3.30
2019-01-02T15:24:38.440Z,4.00
2019-01-02T15:27:08.009Z,1.33
2019-01-02T15:29:38.076Z,3.17
2019-01-02T15:32:07.935Z,2.90
2019-01-02T15:34:37.858Z,1.90
2019-01-02T15:37:07.960Z,2.53
2019-01-02T15:39:38.664Z,3.95
2019-01-02T15:42:08.211Z,4.80
2019-01-02T15:44:37.753Z,1.73
2019-01-02T15:47:08.646Z,4.73
2019-01-02T15:49:38.362Z,3.90
2019-01-02T15:52:08.372Z,2.07
2019-01-02T15:54:38.637Z,2.47
2019-01-02T15:57:08.568Z,6.17
2019-01-02T15:59:38.217Z,2.27
2019-01-02T16:02:08.112Z,1.40
2019-01-02T16:04:41.061Z,2.50
2019-01-02T16:07:09.793Z,3.03
2019-01-02T16:09:39.413Z,3.07
2019-01-02T16:12:09.252Z,2.27
2019-01-02T16:14:39.093Z,3.03
2019-01-02T16:17:08.644Z,3.40
2019-01-02T16:19:38.961Z,2.80
2019-01-02T16:22:08.844Z,3.67
2019-01-02T16:24:38.672Z,4.27
2019-01-02T16:27:08.265Z,5.03
2019-01-02T16:29:38.152Z,4.37
2019-01-02T16:32:08.025Z,7.00
2019-01-02T16:34:38.243Z,4.15
2019-01-02T16:37:07.869Z,1.53
2019-01-02T16:39:37.431Z,8.47
2019-01-02T16:42:07.244Z,4.83
2019-01-02T16:44:37.169Z,5.30
2019-01-02T16:47:07.481Z,2.17
2019-01-02T16:49:37.709Z,2.83
2019-01-02T16:52:07.495Z,5.77
2019-01-02T16:54:37.088Z,2.80
2019-01-02T16:57:06.761Z,3.53
2019-01-02T16:59:36.746Z,2.63
2019-01-02T17:02:06.861Z,8.63
2019-01-02T17:04:37.492Z,4.77
2019-01-02T17:07:07.303Z,3.03
2019-01-02T17:09:37.307Z,4.78
2019-01-02T17:12:07.349Z,2.77
2019-01-02T17:14:37.478Z,4.37
2019-01-02T17:17:07.465Z,2.63
2019-01-02T17:19:37.691Z,5.90
2019-01-02T17:22:07.601Z,3.03
2019-01-02T17:24:37.201Z,0.97
2019-01-02T17:27:07.456Z,3.27
2019-01-02T17:29:37.977Z,1.93
2019-01-02T17:32:07.689Z,5.70
2019-01-02T17:34:47.807Z,4.43
2019-01-02T17:37:17.931Z,1.53
2019-01-02T17:39:48.380Z,5.47
2019-01-02T17:42:18.272Z,1.33
2019-01-02T17:44:48.496Z,2.40
2019-01-02T17:47:18.040Z,3.13
2019-01-02T17:49:48.325Z,1.33
2019-01-02T17:52:18.184Z,3.83
2019-01-02T17:54:48.156Z,0.87
2019-01-02T17:57:18.925Z,2.59
2019-01-02T17:59:49.199Z,4.60
2019-01-02T18:02:19.056Z,2.17
2019-01-02T18:04:49.024Z,0.93
2019-01-02T18:07:18.972Z,2.83
2019-01-02T18:09:49.165Z,2.90
2019-01-02T18:12:19.085Z,3.43
2019-01-02T18:14:48.965Z,1.23
2019-01-02T18:17:18.801Z,2.57
2019-01-02T18:19:48.618Z,1.50
2019-01-02T18:22:18.834Z,2.07
2019-01-02T18:24:49.061Z,3.33
2019-01-02T18:27:18.912Z,4.00
2019-01-02T18:29:49.061Z,5.67
2019-01-02T18:32:18.901Z,1.90
2019-01-02T18:34:48.704Z,2.63
2019-01-02T18:37:18.587Z,1.67
2019-01-02T18:39:48.861Z,1.43
2019-01-02T18:42:18.701Z,5.50
2019-01-02T18:44:48.557Z,1.75
2019-01-02T18:47:18.780Z,5.37
2019-01-02T18:49:48.708Z,2.37
2019-01-02T18:52:18.613Z,3.00
2019-01-02T18:54:49.116Z,3.37
2019-01-02T18:57:18.677Z,1.63
2019-01-02T18:59:48.236Z,4.27
2019-01-02T19:02:17.869Z,1.47
2019-01-02T19:04:47.704Z,1.20
2019-01-02T19:07:17.880Z,3.60
2019-01-02T19:09:47.688Z,1.90
2019-01-02T19:12:17.552Z,3.10
2019-01-02T19:14:47.789Z,4.63
2019-01-02T19:17:17.373Z,3.70
2019-01-02T19:19:47.187Z,4.70
2019-01-02T19:22:17.260Z,0.97
2019-01-02T19:24:47.170Z,4.60
2019-01-02T19:27:17.397Z,3.87
2019-01-02T19:29:47.615Z,6.47
2019-01-02T19:32:17.528Z,2.90
2019-01-02T19:34:47.079Z,5.20
2019-01-02T19:37:16.900Z,2.57
2019-01-02T19:39:46.960Z,6.73
2019-01-02T19:42:16.842Z,2.67
2019-01-02T19:44:46.785Z,2.13
2019-01-02T19:47:16.557Z,5.27
2019-01-02T19:49:46.424Z,2.70
2019-01-02T19:52:16.479Z,7.03
2019-01-02T19:54:46.887Z,7.10
2019-01-02T19:57:21.912Z,5.57
2019-01-02T19:59:54.397Z,5.73
2019-01-02T20:02:25.945Z,13.33
2019-01-02T20:04:55.570Z,3.90
2019-01-02T20:07:25.545Z,3.77
2019-01-02T20:09:55.484Z,10.17
2019-01-02T20:12:25.941Z,4.10
2019-01-02T20:14:56.201Z,11.03
2019-01-02T20:17:26.109Z,8.93
2019-01-02T20:19:56.029Z,4.20
2019-01-02T20:22:26.064Z,2.30
2019-01-02T20:24:55.945Z,6.03
2019-01-02T20:27:25.835Z,5.27
2019-01-02T20:29:55.684Z,2.17
2019-01-02T20:32:25.484Z,3.10
2019-01-02T20:34:55.383Z,5.20
2019-01-02T20:37:25.519Z,11.47
2019-01-02T20:39:56.012Z,32.87
2019-01-02T20:42:25.896Z,20.43
2019-01-02T20:44:55.691Z,19.87
2019-01-02T20:47:25.888Z,3.43
2019-01-02T20:49:55.678Z,5.80
2019-01-02T20:52:25.740Z,10.83
2019-01-02T20:54:55.896Z,25.73
2019-01-02T20:57:26.159Z,5.20
2019-01-02T20:59:55.969Z,8.03
2019-01-02T21:02:25.596Z,8.20
2019-01-02T21:04:55.496Z,7.07
2019-01-02T21:07:35.549Z,4.85
2019-01-02T21:10:06.181Z,4.40
2019-01-02T21:12:36.084Z,2.37
2019-01-02T21:15:06.448Z,4.13
2019-01-02T21:17:36.319Z,3.83
2019-01-02T21:20:07.117Z,3.47
2019-01-02T21:22:36.739Z,1.93
2019-01-02T21:25:07.059Z,3.10
2019-01-02T21:27:37.212Z,1.50
2019-01-02T21:30:07.973Z,1.70
2019-01-02T21:32:37.632Z,1.37
2019-01-02T21:35:07.569Z,2.38
2019-01-02T21:37:37.469Z,2.57
2019-01-02T21:40:08.236Z,2.87
2019-01-02T21:42:38.431Z,1.57
2019-01-02T21:45:08.403Z,3.00
2019-01-02T21:47:38.213Z,3.20
2019-01-02T21:50:08.942Z,2.17
2019-01-02T21:52:39.097Z,1.33
2019-01-02T21:55:08.740Z,1.23
2019-01-02T21:57:38.563Z,2.77
2019-01-02T22:00:11.827Z,2.13
2019-01-02T22:02:41.452Z,2.17
2019-01-02T22:05:11.642Z,3.73
2019-01-02T22:07:41.547Z,5.10
2019-01-02T22:10:12.077Z,3.53
2019-01-02T22:12:42.124Z,2.77
2019-01-02T22:15:13.623Z,1.90
2019-01-02T22:17:43.872Z,2.50
2019-01-02T22:20:14.055Z,4.40
2019-01-02T22:22:52.698Z,5.80
2019-01-02T22:25:22.900Z,2.33
2019-01-02T22:27:53.995Z,1.87
2019-01-02T22:30:24.029Z,2.50
2019-01-02T22:32:55.009Z,1.27
2019-01-02T22:35:24.945Z,2.63
2019-01-02T22:37:57.416Z,1.83
2019-01-02T22:40:27.528Z,1.93
2019-01-02T22:42:57.361Z,4.17
2019-01-02T22:45:27.321Z,2.00
2019-01-02T22:47:57.477Z,2.73
2019-01-02T22:50:27.245Z,4.17
2019-01-02T22:52:57.104Z,5.07
2019-01-02T22:55:26.929Z,2.77
2019-01-02T22:58:01.189Z,3.57
2019-01-02T23:00:49.118Z,4.17
2019-01-02T23:03:56.660Z,4.20
2019-01-02T23:06:44.688Z,10.80
2019-01-02T23:09:31.929Z,5.03
2019-01-02T23:12:19.741Z,2.20
2019-01-02T23:15:08.973Z,2.47
2019-01-02T23:18:04.116Z,3.50
2019-01-02T23:20:52.764Z,1.70
2019-01-02T23:23:41.015Z,1.20
2019-01-02T23:26:25.900Z,2.77
2019-01-02T23:29:14.829Z,2.93
2019-01-02T23:32:02.505Z,2.70
2019-01-02T23:34:50.601Z,5.17
2019-01-02T23:37:38.272Z,2.37
2019-01-02T23:40:25.879Z,4.00
2019-01-02T23:43:17.785Z,1.23
2019-01-02T23:46:05.545Z,2.20
2019-01-02T23:48:57.259Z,2.57
2019-01-02T23:51:45.885Z,2.13
2019-01-02T23:54:33.388Z,3.87
2019-01-02T23:57:23.097Z,3.87
